Time;durP1;ratioP1;P1;durP2;ratioP2;P2;SDS_P1;SDS_P2;PMS_P1;PMS_P2;Temp;Humidity;BMP_temperature;BMP_pressure;BME280_temperature;BME280_humidity;BME280_pressure;Samples;Min_cycle;Max_cycle;Signal;HPM_P1;HPM_P2
2022/05/13 00:02:20;;;;;;;;;;;;;;;19.00;56.47;98151.44;5139401;27;19926;-57
2022/05/13 00:04:49;;;;;;;;;;;;;;;19.06;56.36;98158.25;5159559;27;20366;-56
2022/05/13 00:07:22;;;;;;;;;;;;;;;19.11;56.49;98159.94;5149850;27;19923;-47
2022/05/13 00:10:00;;;;;;;;;;;;;;;19.10;56.74;98152.84;5163357;27;19948;-57
2022/05/13 00:12:38;;;;;;;;;;;;;;;19.14;56.60;98161.19;5133657;27;19923;-56
2022/05/13 00:18:00;;;;;;;;;;;;;;;19.03;56.97;98155.44;5158091;27;19919;-56
2022/05/13 00:20:28;;;;;;;;;;;;;;;19.00;56.96;98153.41;5159802;27;20392;-57
2022/05/13 00:22:57;;;;;;;;;;;;;;;19.03;57.02;98147.97;5151365;27;19963;-54
2022/05/13 00:25:25;;;;;;;;;;;;;;;19.01;56.73;98153.03;5147006;27;19927;-57
2022/05/13 00:27:54;;;;;;;;;;;;;;;18.97;56.94;98151.38;5154769;27;19969;-53
2022/05/13 00:30:48;;;;;;;;;;;;;;;18.96;57.10;98161.59;5147641;27;19946;-57
2022/05/13 00:33:18;;;;;;;;;;;;;;;18.96;57.37;98163.53;5138976;27;20351;-57
2022/05/13 00:35:46;;;;;;;;;;;;;;;18.95;57.38;98159.19;5149449;27;19919;-56
2022/05/13 00:38:14;;;;;;;;;;;;;;;18.93;57.53;98162.31;5140772;27;19920;-56
2022/05/13 00:40:42;;;;;;;;;;;;;;;18.98;57.51;98153.78;5148270;27;20294;-58
2022/05/13 00:43:11;;;;;;;;;;;;;;;19.03;57.55;98155.44;5154293;27;19972;-57
2022/05/13 00:45:41;;;;;;;;;;;;;;;19.06;57.49;98155.50;5157097;27;19927;-57
2022/05/13 00:48:13;;;;;;;;;;;;;;;19.07;57.54;98153.56;5153795;27;19975;-57
2022/05/13 00:50:42;;;;;;;;;;;;;;;19.11;57.48;98163.47;5154881;27;19926;-56
2022/05/13 00:53:17;;;;;;;;;;;;;;;19.15;57.69;98163.56;5156776;27;19930;-57
2022/05/13 00:55:45;;;;;;;;;;;;;;;19.05;57.81;98162.16;5153617;27;20002;-57
2022/05/13 00:58:17;;;;;;;;;;;;;;;19.01;58.06;98166.00;5148094;27;19934;-57
2022/05/13 01:01:14;;;;;;;;;;;;;;;19.15;57.64;98158.06;5140231;27;19924;-57
2022/05/13 01:03:48;;;;;;;;;;;;;;;19.14;57.73;98158.44;5145755;27;20291;-57
2022/05/13 01:06:19;;;;;;;;;;;;;;;19.12;57.90;98158.75;5151357;27;19923;-57
2022/05/13 01:08:47;;;;;;;;;;;;;;;19.07;57.91;98161.84;5145677;27;19926;-57
2022/05/13 01:11:15;;;;;;;;;;;;;;;19.06;58.00;98171.22;5148464;27;19973;-57
2022/05/13 01:13:45;;;;;;;;;;;;;;;19.11;58.03;98168.19;5158781;27;19986;-57
2022/05/13 01:19:04;;;;;;;;;;;;;;;19.03;58.10;98160.94;5140274;27;20363;-58
2022/05/13 01:21:34;;;;;;;;;;;;;;;18.92;58.46;98168.19;5148403;27;19965;-57
2022/05/13 01:24:02;;;;;;;;;;;;;;;18.89;58.45;98155.91;5151764;27;19920;-58
2022/05/13 01:26:30;;;;;;;;;;;;;;;18.86;58.61;98153.13;5153714;27;19948;-58
2022/05/13 01:28:58;;;;;;;;;;;;;;;18.81;58.59;98154.19;5145653;27;19919;-50
2022/05/13 01:31:27;;;;;;;;;;;;;;;18.72;58.36;98156.34;5139701;27;20021;-57
2022/05/13 01:33:55;;;;;;;;;;;;;;;18.64;58.55;98152.56;5138701;27;19920;-49
2022/05/13 01:36:23;;;;;;;;;;;;;;;18.77;58.38;98158.81;5143929;27;19928;-47
2022/05/13 01:38:55;;;;;;;;;;;;;;;18.72;58.46;98153.59;5153829;27;19933;-56
2022/05/13 01:41:23;;;;;;;;;;;;;;;18.70;58.76;98153.94;5152890;27;19925;-50
2022/05/13 01:43:52;;;;;;;;;;;;;;;18.67;58.85;98146.38;5153585;27;19923;-58
2022/05/13 01:49:12;;;;;;;;;;;;;;;18.64;59.17;98149.03;5147120;27;20166;-55
2022/05/13 01:51:40;;;;;;;;;;;;;;;18.66;59.04;98152.25;5144006;27;19972;-57
2022/05/13 01:57:03;;;;;;;;;;;;;;;18.69;59.14;98159.78;5140858;27;19919;-54
2022/05/13 01:59:31;;;;;;;;;;;;;;;18.69;59.03;98152.31;5150394;27;19926;-57
2022/05/13 02:01:59;;;;;;;;;;;;;;;18.76;58.97;98155.25;5141804;27;19926;-57
2022/05/13 02:04:40;;;;;;;;;;;;;;;18.81;58.85;98159.69;5124133;27;19923;-57
2022/05/13 02:07:08;;;;;;;;;;;;;;;18.84;58.65;98147.94;5150654;27;19925;-58
2022/05/13 02:09:38;;;;;;;;;;;;;;;18.67;58.98;98143.63;5153544;27;20406;-56
2022/05/13 02:12:06;;;;;;;;;;;;;;;18.72;59.00;98146.13;5152670;27;19919;-57
2022/05/13 02:14:36;;;;;;;;;;;;;;;18.74;58.83;98140.25;5125573;27;19920;-57
2022/05/13 02:17:04;;;;;;;;;;;;;;;18.71;59.01;98139.03;5153905;27;19922;-57
2022/05/13 02:19:33;;;;;;;;;;;;;;;18.83;58.58;98140.84;5152803;27;20369;-58
2022/05/13 02:22:08;;;;;;;;;;;;;;;18.76;58.79;98140.72;5146505;27;20401;-57
2022/05/13 02:24:35;;;;;;;;;;;;;;;18.75;59.07;98145.41;5154494;27;19926;-57
2022/05/13 02:27:05;;;;;;;;;;;;;;;18.74;59.11;98146.53;5155067;27;19923;-56
2022/05/13 02:29:33;;;;;;;;;;;;;;;18.79;59.02;98143.50;5149581;27;20339;-57
2022/05/13 02:32:07;;;;;;;;;;;;;;;18.53;59.68;98146.03;5150548;27;19919;-58
2022/05/13 02:34:36;;;;;;;;;;;;;;;18.55;59.63;98143.75;5146973;27;19940;-58
2022/05/13 02:37:04;;;;;;;;;;;;;;;18.59;59.51;98141.88;5149693;27;19964;-57
2022/05/13 02:42:26;;;;;;;;;;;;;;;18.41;60.02;98140.66;5127450;27;19926;-58
2022/05/13 02:44:54;;;;;;;;;;;;;;;18.36;60.13;98138.16;5146087;27;19920;-52
2022/05/13 02:47:21;;;;;;;;;;;;;;;18.45;59.98;98141.53;5146958;27;19954;-57
2022/05/13 02:50:17;;;;;;;;;;;;;;;18.54;59.72;98139.41;5140437;27;19976;-57
2022/05/13 02:52:38;;;;;;;;;;;;;;;18.48;59.63;98133.38;5145260;27;19922;-56
2022/05/13 02:55:07;;;;;;;;;;;;;;;18.34;60.11;98135.78;5144442;27;20006;-57
2022/05/13 02:57:38;;;;;;;;;;;;;;;18.46;59.85;98132.13;5156132;27;19926;-57
2022/05/13 03:00:06;;;;;;;;;;;;;;;18.55;59.65;98135.47;5146708;27;19958;-57
2022/05/13 03:02:35;;;;;;;;;;;;;;;18.54;59.41;98134.69;5147329;27;20429;-57
2022/05/13 03:05:02;;;;;;;;;;;;;;;18.51;59.50;98135.38;5152656;27;19965;-56
2022/05/13 03:07:30;;;;;;;;;;;;;;;18.46;59.41;98138.41;5156229;27;19954;-57
2022/05/13 03:12:51;;;;;;;;;;;;;;;18.64;58.99;98130.56;5153539;27;19925;-57
2022/05/13 03:15:44;;;;;;;;;;;;;;;18.61;59.03;98123.03;5146319;27;19974;-53
2022/05/13 03:18:12;;;;;;;;;;;;;;;18.55;58.99;98125.28;5146454;27;20244;-56
2022/05/13 03:20:40;;;;;;;;;;;;;;;18.54;59.10;98131.16;5146826;27;20423;-57
2022/05/13 03:23:08;;;;;;;;;;;;;;;18.64;59.10;98125.06;5145862;27;20030;-56
2022/05/13 03:25:36;;;;;;;;;;;;;;;18.71;58.92;98121.72;5150587;27;19919;-57
2022/05/13 03:28:06;;;;;;;;;;;;;;;18.65;59.07;98129.44;5156558;27;20010;-57
2022/05/13 03:30:33;;;;;;;;;;;;;;;18.52;59.85;98123.22;5164512;27;19991;-57
2022/05/13 03:33:02;;;;;;;;;;;;;;;18.52;59.56;98123.22;5129698;27;19919;-55
2022/05/13 03:35:30;;;;;;;;;;;;;;;18.58;59.37;98129.25;5162149;27;19958;-57
2022/05/13 03:37:58;;;;;;;;;;;;;;;18.54;59.25;98128.41;5153630;27;19923;-51
2022/05/13 03:40:31;;;;;;;;;;;;;;;18.42;59.68;98126.53;5140024;27;19919;-58
2022/05/13 03:43:00;;;;;;;;;;;;;;;18.46;59.67;98124.66;5151731;27;19926;-56
2022/05/13 03:45:32;;;;;;;;;;;;;;;18.49;59.60;98131.41;5156244;27;19920;-57
2022/05/13 03:48:25;;;;;;;;;;;;;;;18.49;59.58;98134.97;5160670;27;19923;-57
2022/05/13 03:51:03;;;;;;;;;;;;;;;18.46;59.70;98129.38;5154204;27;20355;-56
2022/05/13 03:53:30;;;;;;;;;;;;;;;18.44;59.89;98126.19;5151942;27;19924;-57
2022/05/13 03:55:58;;;;;;;;;;;;;;;18.49;59.49;98125.91;5152189;27;19919;-56
2022/05/13 03:58:26;;;;;;;;;;;;;;;18.48;59.67;98124.28;5153124;27;19958;-57
2022/05/13 04:00:58;;;;;;;;;;;;;;;18.57;59.74;98127.66;5152821;27;20018;-56
2022/05/13 04:03:27;;;;;;;;;;;;;;;18.57;59.57;98119.41;5143373;27;19975;-57
2022/05/13 04:08:59;;;;;;;;;;;;;;;18.54;59.80;98134.69;5143614;27;19945;-56
2022/05/13 04:17:21;;;;;;;;;;;;;;;18.69;59.60;98127.56;5136801;27;20389;-53
2022/05/13 04:19:49;;;;;;;;;;;;;;;18.70;59.63;98142.16;5145906;27;20347;-57
2022/05/13 04:22:19;;;;;;;;;;;;;;;18.73;59.50;98141.41;5149237;27;19972;-55
2022/05/13 04:24:46;;;;;;;;;;;;;;;18.80;59.56;98142.38;5150110;27;19919;-54
2022/05/13 04:27:14;;;;;;;;;;;;;;;18.79;59.44;98149.03;5136673;27;19926;-56
2022/05/13 04:29:42;;;;;;;;;;;;;;;18.86;59.31;98145.66;5144780;27;19964;-57
2022/05/13 04:32:10;;;;;;;;;;;;;;;18.90;59.22;98151.22;5150258;27;19923;-54
2022/05/13 04:34:39;;;;;;;;;;;;;;;18.86;59.34;98155.88;5156260;27;20462;-51
2022/05/13 04:37:09;;;;;;;;;;;;;;;18.76;59.37;98146.22;5155025;27;20365;-57
2022/05/13 04:39:37;;;;;;;;;;;;;;;18.82;59.37;98150.28;5156261;27;20388;-53
2022/05/13 04:44:51;;;;;;;;;;;;;;;18.87;59.28;98158.25;5145411;27;20363;-54
2022/05/13 04:50:14;;;;;;;;;;;;;;;18.75;59.50;98159.19;5106154;27;20247;-54
2022/05/13 04:52:42;;;;;;;;;;;;;;;18.83;59.46;98162.88;5141366;27;19970;-54
2022/05/13 04:55:10;;;;;;;;;;;;;;;18.89;59.19;98161.44;5145664;27;19923;-57
2022/05/13 04:57:38;;;;;;;;;;;;;;;18.82;59.66;98181.34;5151308;27;19923;-56
2022/05/13 05:00:07;;;;;;;;;;;;;;;18.89;59.55;98182.66;5149668;27;19944;-48
2022/05/13 05:02:35;;;;;;;;;;;;;;;18.78;59.77;98177.72;5139912;27;20260;-56
2022/05/13 05:05:03;;;;;;;;;;;;;;;18.90;59.72;98184.25;5145467;27;20022;-49
2022/05/13 05:07:32;;;;;;;;;;;;;;;18.82;59.87;98184.09;5136552;27;19923;-58
2022/05/13 05:10:00;;;;;;;;;;;;;;;18.66;60.00;98175.03;5141968;27;19919;-57
2022/05/13 05:12:55;;;;;;;;;;;;;;;18.70;59.79;98180.69;5138292;27;20422;-56
2022/05/13 05:15:49;;;;;;;;;;;;;;;18.62;60.00;98185.16;5141065;27;20104;-57
2022/05/13 05:18:17;;;;;;;;;;;;;;;18.76;59.78;98190.25;5148652;27;19919;-57
2022/05/13 05:20:45;;;;;;;;;;;;;;;18.72;60.14;98181.91;5142560;27;19979;-57
2022/05/13 05:23:17;;;;;;;;;;;;;;;18.97;59.38;98187.97;5139127;27;19919;-58
2022/05/13 05:25:45;;;;;;;;;;;;;;;18.95;59.26;98183.97;5139058;27;20368;-58
2022/05/13 05:28:13;;;;;;;;;;;;;;;18.86;59.56;98184.19;5145914;27;20340;-57
2022/05/13 05:30:41;;;;;;;;;;;;;;;18.98;59.21;98191.53;5135497;27;19955;-58
2022/05/13 05:33:11;;;;;;;;;;;;;;;18.96;59.48;98197.41;5136432;27;19932;-57
2022/05/13 05:35:39;;;;;;;;;;;;;;;19.03;59.21;98189.28;5171105;27;19999;-58
2022/05/13 05:38:08;;;;;;;;;;;;;;;19.03;59.39;98192.03;5164675;27;20324;-57
2022/05/13 05:40:38;;;;;;;;;;;;;;;19.02;58.60;98195.16;5151442;27;19919;-58
2022/05/13 05:43:06;;;;;;;;;;;;;;;18.97;58.74;98195.44;5167855;27;19988;-57
2022/05/13 05:45:35;;;;;;;;;;;;;;;18.91;58.95;98194.09;5161080;27;19918;-58
2022/05/13 05:48:05;;;;;;;;;;;;;;;18.86;58.42;98203.47;5160638;27;19919;-57
2022/05/13 05:50:33;;;;;;;;;;;;;;;18.84;58.65;98203.78;5157547;27;19964;-57
2022/05/13 05:53:02;;;;;;;;;;;;;;;18.77;58.97;98197.34;5156881;27;19927;-57
2022/05/13 05:58:18;;;;;;;;;;;;;;;18.79;58.54;98204.06;5158861;27;19919;-57
2022/05/13 06:00:46;;;;;;;;;;;;;;;18.67;58.89;98198.66;5150447;27;19950;-57
2022/05/13 06:03:14;;;;;;;;;;;;;;;18.92;58.28;98203.97;5161317;27;19934;-58
2022/05/13 06:05:42;;;;;;;;;;;;;;;18.84;58.16;98203.78;5157154;27;20247;-57
2022/05/13 06:08:10;;;;;;;;;;;;;;;18.69;58.24;98221.13;5163964;27;20043;-58
2022/05/13 06:10:38;;;;;;;;;;;;;;;18.89;57.51;98215.69;5152825;27;19923;-57
2022/05/13 06:13:07;;;;;;;;;;;;;;;18.87;57.73;98220.78;5146955;27;19919;-57
2022/05/13 06:15:42;;;;;;;;;;;;;;;18.99;57.43;98215.94;5152668;27;19926;-55
2022/05/13 06:18:10;;;;;;;;;;;;;;;19.02;57.40;98219.94;5146722;27;19938;-55
2022/05/13 06:20:38;;;;;;;;;;;;;;;19.18;56.56;98223.44;5143031;27;19942;-55
2022/05/13 06:23:07;;;;;;;;;;;;;;;19.26;55.10;98216.91;5141650;27;19919;-55
2022/05/13 06:25:36;;;;;;;;;;;;;;;19.33;54.78;98208.81;5143939;27;19925;-56
2022/05/13 06:28:04;;;;;;;;;;;;;;;19.32;54.17;98200.91;5142698;27;20006;-54
2022/05/13 06:30:33;;;;;;;;;;;;;;;19.31;54.97;98204.81;5145657;27;19927;-55
2022/05/13 06:33:03;;;;;;;;;;;;;;;19.42;55.13;98216.06;5143841;27;19926;-56
2022/05/13 06:35:31;;;;;;;;;;;;;;;19.54;52.94;98218.66;5127183;27;20580;-56
2022/05/13 06:38:00;;;;;;;;;;;;;;;19.30;53.34;98215.03;5141843;27;19926;-56
2022/05/13 06:40:28;;;;;;;;;;;;;;;19.26;52.73;98222.41;5145085;27;20391;-57
2022/05/13 06:43:01;;;;;;;;;;;;;;;19.43;52.03;98212.94;5132844;27;19967;-55
2022/05/13 06:45:29;;;;;;;;;;;;;;;19.55;52.00;98214.75;5142015;27;20010;-56
2022/05/13 06:47:57;;;;;;;;;;;;;;;19.36;51.93;98224.59;5137294;27;19920;-55
2022/05/13 06:53:41;;;;;;;;;;;;;;;19.80;53.39;98218.81;5144004;27;19948;-56
2022/05/13 06:56:13;;;;;;;;;;;;;;;19.68;49.99;98221.75;5157168;27;19928;-55
2022/05/13 06:58:42;;;;;;;;;;;;;;;19.57;49.39;98224.25;5149369;27;19948;-56
2022/05/13 07:01:12;;;;;;;;;;;;;;;19.83;48.52;98220.06;5141142;27;19919;-56
2022/05/13 07:03:41;;;;;;;;;;;;;;;19.72;49.27;98214.34;5147863;27;19923;-56
2022/05/13 07:06:15;;;;;;;;;;;;;;;19.63;49.57;98220.06;5148573;27;19957;-56
2022/05/13 07:08:43;;;;;;;;;;;;;;;19.57;49.50;98218.75;5155984;27;19927;-56
2022/05/13 07:11:11;;;;;;;;;;;;;;;19.87;51.13;98220.94;5156794;27;19919;-56
2022/05/13 07:13:42;;;;;;;;;;;;;;;19.94;47.65;98225.78;5154142;27;20366;-55
2022/05/13 07:16:35;;;;;;;;;;;;;;;20.08;48.26;98232.38;5145311;27;19925;-56
2022/05/13 07:19:10;;;;;;;;;;;;;;;20.19;46.47;98232.56;5142855;27;20027;-56
2022/05/13 07:21:42;;;;;;;;;;;;;;;20.02;45.54;98227.50;5133051;27;19930;-55
2022/05/13 07:24:10;;;;;;;;;;;;;;;20.17;45.76;98220.28;5148603;27;19919;-59
2022/05/13 07:26:38;;;;;;;;;;;;;;;20.12;45.31;98221.38;5149123;27;19919;-55
2022/05/13 07:29:06;;;;;;;;;;;;;;;20.27;45.16;98226.00;5147061;27;19948;-56
2022/05/13 07:31:34;;;;;;;;;;;;;;;20.24;45.08;98226.75;5145218;27;19923;-55
2022/05/13 07:34:02;;;;;;;;;;;;;;;20.27;45.38;98236.22;5138866;27;20346;-58
2022/05/13 07:36:30;;;;;;;;;;;;;;;20.28;45.79;98241.38;5147719;27;19919;-55
2022/05/13 07:41:44;;;;;;;;;;;;;;;20.16;46.81;98249.81;5118824;27;19929;-56
2022/05/13 07:44:12;;;;;;;;;;;;;;;20.32;48.29;98247.75;5152708;27;19925;-55
2022/05/13 07:46:40;;;;;;;;;;;;;;;20.21;45.75;98252.28;5160258;27;19999;-56
2022/05/13 07:49:09;;;;;;;;;;;;;;;20.27;44.38;98256.34;5149696;27;20022;-56
2022/05/13 07:51:37;;;;;;;;;;;;;;;20.21;44.50;98255.03;5131547;27;19923;-56
2022/05/13 07:54:07;;;;;;;;;;;;;;;20.37;44.39;98257.69;5151540;27;19920;-55
2022/05/13 07:56:35;;;;;;;;;;;;;;;20.15;44.24;98249.03;5151232;27;20010;-55
2022/05/13 07:59:03;;;;;;;;;;;;;;;20.31;44.27;98256.41;5148821;27;19967;-55
2022/05/13 08:01:31;;;;;;;;;;;;;;;20.39;43.61;98247.88;5152613;27;19926;-56
2022/05/13 08:06:50;;;;;;;;;;;;;;;20.39;42.45;98234.06;5151574;27;19926;-56
2022/05/13 08:09:44;;;;;;;;;;;;;;;20.52;45.10;98243.00;5136903;27;19976;-56
2022/05/13 08:12:13;;;;;;;;;;;;;;;20.51;42.42;98241.41;5151976;27;19919;-56
2022/05/13 08:14:41;;;;;;;;;;;;;;;20.67;41.80;98242.09;5151729;27;19923;-55
2022/05/13 08:17:09;;;;;;;;;;;;;;;20.73;41.48;98239.81;5153784;27;19922;-57
2022/05/13 08:19:37;;;;;;;;;;;;;;;21.04;41.31;98232.34;5147901;27;19940;-56
2022/05/13 08:22:06;;;;;;;;;;;;;;;20.99;41.97;98229.94;5151585;27;19919;-55
2022/05/13 08:24:34;;;;;;;;;;;;;;;20.87;40.04;98244.72;5149550;27;19923;-57
2022/05/13 08:27:02;;;;;;;;;;;;;;;20.80;39.61;98244.63;5150841;27;19937;-56
2022/05/13 08:29:32;;;;;;;;;;;;;;;21.01;41.13;98249.69;5144361;27;19919;-56
2022/05/13 08:31:59;;;;;;;;;;;;;;;20.91;38.84;98243.63;5145292;27;20328;-57
2022/05/13 08:34:27;;;;;;;;;;;;;;;20.70;41.51;98251.56;5143665;27;19919;-55
2022/05/13 08:36:56;;;;;;;;;;;;;;;20.76;38.87;98261.13;5145888;27;19926;-56
2022/05/13 08:39:24;;;;;;;;;;;;;;;20.90;39.13;98252.28;5146364;27;19923;-55
2022/05/13 08:42:14;;;;;;;;;;;;;;;21.02;43.33;98256.78;5144959;27;20085;-56
2022/05/13 08:45:07;;;;;;;;;;;;;;;21.03;39.07;98250.09;5146959;27;20636;-56
2022/05/13 08:47:40;;;;;;;;;;;;;;;20.81;39.42;98248.97;5139066;27;19968;-56
2022/05/13 08:50:09;;;;;;;;;;;;;;;20.58;39.86;98241.53;5140306;27;19942;-57
2022/05/13 08:55:29;;;;;;;;;;;;;;;21.02;39.11;98245.75;5149612;27;19923;-55
2022/05/13 08:57:57;;;;;;;;;;;;;;;21.02;39.04;98254.03;5140057;27;19919;-55
2022/05/13 09:00:28;;;;;;;;;;;;;;;20.64;39.15;98242.00;5136349;27;20004;-55
2022/05/13 09:02:59;;;;;;;;;;;;;;;20.92;39.39;98245.22;5143002;27;19926;-55
2022/05/13 09:05:28;;;;;;;;;;;;;;;20.87;40.79;98253.81;5156582;27;19980;-55
2022/05/13 09:07:56;;;;;;;;;;;;;;;20.67;39.89;98257.84;5141868;27;19919;-55
2022/05/13 09:10:24;;;;;;;;;;;;;;;20.86;39.52;98254.19;5158894;27;19919;-54
2022/05/13 09:12:54;;;;;;;;;;;;;;;20.35;40.22;98255.31;5156555;27;19918;-56
2022/05/13 09:15:47;;;;;;;;;;;;;;;20.77;40.02;98256.41;5150170;27;19930;-55
2022/05/13 09:18:22;;;;;;;;;;;;;;;20.75;39.26;98259.53;5149324;27;19923;-55
2022/05/13 09:20:51;;;;;;;;;;;;;;;20.91;38.99;98256.63;5152748;27;19976;-55
2022/05/13 09:23:20;;;;;;;;;;;;;;;21.13;38.79;98247.50;5152018;27;19924;-56
2022/05/13 09:26:03;;;;;;;;;;;;;;;21.09;38.46;98251.38;5153067;27;20376;-55
2022/05/13 09:28:31;;;;;;;;;;;;;;;21.20;40.72;98241.28;5150849;27;20001;-56
2022/05/13 09:31:12;;;;;;;;;;;;;;;21.34;42.23;98244.25;5147726;27;19918;-57
2022/05/13 09:33:45;;;;;;;;;;;;;;;21.24;38.64;98244.09;5136898;27;19923;-58
2022/05/13 09:36:31;;;;;;;;;;;;;;;20.69;39.15;98258.25;5143214;27;19984;-59
2022/05/13 09:39:00;;;;;;;;;;;;;;;20.94;39.81;98255.91;5122142;27;19919;-58
2022/05/13 09:41:29;;;;;;;;;;;;;;;20.98;40.93;98245.69;5139543;27;20014;-59
2022/05/13 09:43:58;;;;;;;;;;;;;;;20.87;39.07;98245.53;5120906;27;20367;-58
2022/05/13 09:46:31;;;;;;;;;;;;;;;20.88;40.23;98258.19;5142595;27;19919;-59
2022/05/13 09:49:28;;;;;;;;;;;;;;;20.73;39.36;98256.38;5152897;27;19923;-55
2022/05/13 09:51:57;;;;;;;;;;;;;;;20.64;39.65;98244.78;5149052;27;19919;-58
2022/05/13 09:54:27;;;;;;;;;;;;;;;20.86;42.05;98259.72;5146971;27;19962;-59
2022/05/13 09:56:56;;;;;;;;;;;;;;;20.91;39.96;98240.06;5156530;27;20389;-60
2022/05/13 09:59:26;;;;;;;;;;;;;;;20.72;39.09;98249.25;5147718;27;22741;-59
2022/05/13 10:01:55;;;;;;;;;;;;;;;20.89;39.35;98245.16;5152170;27;20009;-59
2022/05/13 10:04:23;;;;;;;;;;;;;;;20.96;38.98;98241.72;5152706;27;19962;-56
2022/05/13 10:07:02;;;;;;;;;;;;;;;21.16;40.81;98238.47;5162561;27;20305;-59
2022/05/13 10:15:15;;;;;;;;;;;;;;;21.07;38.58;98228.84;5151773;27;19971;-59
2022/05/13 10:17:45;;;;;;;;;;;;;;;21.07;37.68;98232.41;5148900;27;19934;-59
2022/05/13 10:20:14;;;;;;;;;;;;;;;21.13;36.74;98230.91;5135673;27;19930;-57
2022/05/13 10:22:46;;;;;;;;;;;;;;;21.23;39.38;98236.97;5149892;27;20563;-58
2022/05/13 10:25:16;;;;;;;;;;;;;;;21.31;39.62;98228.44;5149362;27;19927;-59
2022/05/13 10:27:45;;;;;;;;;;;;;;;21.56;37.92;98230.72;5146228;27;19925;-58
2022/05/13 10:30:14;;;;;;;;;;;;;;;21.56;35.71;98225.97;5146587;27;19930;-57
2022/05/13 10:32:44;;;;;;;;;;;;;;;21.78;36.33;98231.75;5142310;27;20417;-58
2022/05/13 10:35:40;;;;;;;;;;;;;;;21.70;39.49;98241.97;5140652;27;19930;-58
2022/05/13 10:38:10;;;;;;;;;;;;;;;21.52;36.17;98243.69;5140049;27;19923;-58
2022/05/13 10:40:40;;;;;;;;;;;;;;;21.36;37.39;98243.88;5141773;27;20271;-58
2022/05/13 10:43:10;;;;;;;;;;;;;;;21.31;35.24;98220.16;5144491;27;19919;-59
2022/05/13 10:45:41;;;;;;;;;;;;;;;21.15;35.81;98220.31;5156423;27;19925;-58
2022/05/13 10:48:21;;;;;;;;;;;;;;;21.26;36.48;98225.97;5141277;27;20454;-59
2022/05/13 10:51:17;;;;;;;;;;;;;;;21.11;35.81;98238.00;5150497;27;19992;-58
2022/05/13 10:53:52;;;;;;;;;;;;;;;21.36;39.28;98232.81;5163279;27;19963;-58
2022/05/13 10:56:21;;;;;;;;;;;;;;;21.63;37.18;98231.63;5144162;27;19967;-59
2022/05/13 10:58:51;;;;;;;;;;;;;;;21.78;35.33;98229.00;5157054;27;19941;-58
2022/05/13 11:01:25;;;;;;;;;;;;;;;21.76;34.93;98234.91;5156157;27;19923;-57
2022/05/13 11:06:54;;;;;;;;;;;;;;;21.16;35.13;98235.72;5155316;27;19932;-58
2022/05/13 11:09:47;;;;;;;;;;;;;;;21.21;36.27;98229.06;5155358;27;20332;-56
2022/05/13 11:12:19;;;;;;;;;;;;;;;21.31;34.87;98233.97;5128125;27;19919;-59
2022/05/13 11:14:51;;;;;;;;;;;;;;;21.10;34.29;98241.94;5141238;27;19923;-58
2022/05/13 11:17:24;;;;;;;;;;;;;;;21.13;34.04;98230.13;5151993;27;19926;-58
2022/05/13 11:19:53;;;;;;;;;;;;;;;21.50;35.90;98244.06;5149810;27;19919;-59
2022/05/13 11:22:23;;;;;;;;;;;;;;;21.60;36.92;98231.56;5148688;27;20485;-58
2022/05/13 11:28:13;;;;;;;;;;;;;;;21.55;33.94;98229.13;5147567;27;19930;-58
2022/05/13 11:30:42;;;;;;;;;;;;;;;21.55;34.45;98224.38;5146638;27;19973;-58
2022/05/13 11:33:15;;;;;;;;;;;;;;;21.73;34.73;98224.59;5143473;27;20363;-57
2022/05/13 11:35:44;;;;;;;;;;;;;;;21.89;34.19;98224.38;5143734;27;19923;-58
2022/05/13 11:38:14;;;;;;;;;;;;;;;21.92;34.90;98229.97;5146175;27;20138;-59
2022/05/13 11:40:43;;;;;;;;;;;;;;;21.90;32.70;98215.72;5141987;27;19979;-58
2022/05/13 11:43:38;;;;;;;;;;;;;;;22.01;32.81;98223.34;5135756;27;19978;-58
2022/05/13 11:46:21;;;;;;;;;;;;;;;22.01;34.33;98226.91;5102405;27;19926;-59
2022/05/13 11:48:51;;;;;;;;;;;;;;;22.07;33.24;98213.50;5128580;27;20374;-59
2022/05/13 11:51:20;;;;;;;;;;;;;;;22.18;32.42;98212.47;5154356;27;19931;-57
2022/05/13 11:53:52;;;;;;;;;;;;;;;21.97;35.07;98220.53;5159647;27;19923;-57
2022/05/13 11:56:30;;;;;;;;;;;;;;;21.81;34.36;98217.97;5155701;27;19926;-57
2022/05/13 11:59:01;;;;;;;;;;;;;;;21.85;34.92;98216.06;5156299;27;20327;-57
2022/05/13 12:01:48;;;;;;;;;;;;;;;21.83;33.37;98212.06;5160466;27;19919;-57
2022/05/13 12:04:30;;;;;;;;;;;;;;;21.71;31.63;98200.09;5156257;27;19967;-57
2022/05/13 12:06:59;;;;;;;;;;;;;;;21.78;33.18;98199.38;5136971;27;19923;-57
2022/05/13 12:09:29;;;;;;;;;;;;;;;21.70;32.78;98198.50;5154664;27;19976;-57
2022/05/13 12:12:00;;;;;;;;;;;;;;;21.74;33.51;98211.59;5159739;27;19935;-58
2022/05/13 12:14:29;;;;;;;;;;;;;;;21.72;34.69;98195.34;5160527;27;19926;-57
2022/05/13 12:17:01;;;;;;;;;;;;;;;21.78;33.82;98193.84;5155928;27;19922;-57
2022/05/13 12:19:35;;;;;;;;;;;;;;;21.90;32.93;98204.66;5147532;27;19927;-57
2022/05/13 12:22:05;;;;;;;;;;;;;;;22.01;35.71;98201.22;5150720;27;19919;-57
2022/05/13 12:24:48;;;;;;;;;;;;;;;22.01;34.15;98190.94;5143320;27;20353;-58
2022/05/13 12:27:17;;;;;;;;;;;;;;;22.05;33.63;98191.78;5129453;27;19927;-57
2022/05/13 12:29:57;;;;;;;;;;;;;;;22.10;33.31;98205.25;5149077;27;19981;-56
2022/05/13 12:32:36;;;;;;;;;;;;;;;22.20;34.58;98203.78;5145019;27;20369;-57
2022/05/13 12:38:06;;;;;;;;;;;;;;;22.11;33.96;98195.81;5158254;27;20258;-58
2022/05/13 12:40:35;;;;;;;;;;;;;;;21.97;33.98;98196.41;5144154;27;20289;-57
2022/05/13 12:43:08;;;;;;;;;;;;;;;21.66;34.57;98205.97;5151025;27;19919;-58
2022/05/13 12:45:45;;;;;;;;;;;;;;;21.81;34.97;98195.84;5157465;27;19972;-58
2022/05/13 12:48:14;;;;;;;;;;;;;;;21.96;34.38;98199.56;5161218;27;19923;-58
2022/05/13 12:50:44;;;;;;;;;;;;;;;21.98;34.64;98191.69;5131191;27;19919;-57
2022/05/13 12:53:30;;;;;;;;;;;;;;;21.84;35.27;98210.88;5149937;27;19919;-57
2022/05/13 12:56:12;;;;;;;;;;;;;;;21.59;34.74;98197.59;5145114;27;21912;-58
2022/05/13 12:58:40;;;;;;;;;;;;;;;21.75;35.34;98204.88;5153600;27;19923;-58
2022/05/13 13:01:12;;;;;;;;;;;;;;;21.60;36.14;98199.19;5149362;27;19919;-58
2022/05/13 13:03:42;;;;;;;;;;;;;;;21.75;35.74;98208.44;5153138;27;19919;-58
2022/05/13 13:06:18;;;;;;;;;;;;;;;21.87;35.48;98196.31;5126988;27;22847;-59
2022/05/13 13:08:47;;;;;;;;;;;;;;;21.97;35.59;98198.41;5150594;27;19919;-58
2022/05/13 13:11:25;;;;;;;;;;;;;;;21.96;35.99;98199.56;5156975;27;19919;-58
2022/05/13 13:13:55;;;;;;;;;;;;;;;22.12;35.05;98200.16;5158341;27;19975;-56
2022/05/13 13:16:33;;;;;;;;;;;;;;;21.87;35.22;98197.09;5143311;27;19919;-58
2022/05/13 13:19:06;;;;;;;;;;;;;;;21.90;36.42;98201.88;5151449;27;19994;-57
2022/05/13 13:21:35;;;;;;;;;;;;;;;21.80;35.67;98199.00;5143763;27;19969;-57
2022/05/13 13:24:07;;;;;;;;;;;;;;;21.77;36.83;98192.25;5160404;27;19918;-58
2022/05/13 13:26:35;;;;;;;;;;;;;;;21.83;36.92;98209.31;5161196;27;19926;-58
2022/05/13 13:29:03;;;;;;;;;;;;;;;21.91;35.84;98202.69;5144408;27;19927;-58
2022/05/13 13:31:38;;;;;;;;;;;;;;;21.97;35.76;98207.50;5160438;27;19919;-58
2022/05/13 13:34:06;;;;;;;;;;;;;;;21.90;35.13;98207.44;5127798;27;20402;-58
2022/05/13 13:36:38;;;;;;;;;;;;;;;21.97;34.87;98196.41;5153511;27;19923;-58
2022/05/13 13:39:27;;;;;;;;;;;;;;;22.11;36.78;98201.34;5163780;27;19923;-58
2022/05/13 13:42:00;;;;;;;;;;;;;;;22.08;35.53;98201.28;5162022;27;19919;-58
2022/05/13 13:44:29;;;;;;;;;;;;;;;22.04;35.67;98189.38;5129434;27;20002;-58
2022/05/13 13:46:57;;;;;;;;;;;;;;;21.93;35.75;98190.06;5134657;27;19963;-57
2022/05/13 13:49:26;;;;;;;;;;;;;;;22.02;36.67;98198.06;5143463;27;19926;-56
2022/05/13 13:51:56;;;;;;;;;;;;;;;21.96;35.99;98205.91;5152975;27;20277;-57
2022/05/13 13:54:27;;;;;;;;;;;;;;;21.81;37.09;98193.09;5132341;27;19919;-57
2022/05/13 13:56:56;;;;;;;;;;;;;;;22.08;35.49;98192.97;5127291;27;20281;-58
2022/05/13 13:59:26;;;;;;;;;;;;;;;21.91;36.42;98188.84;5144935;27;19965;-57
2022/05/13 14:01:54;;;;;;;;;;;;;;;21.95;34.95;98198.78;5152989;27;20066;-58
2022/05/13 14:04:23;;;;;;;;;;;;;;;22.13;35.65;98198.19;5153080;27;20021;-55
2022/05/13 14:06:52;;;;;;;;;;;;;;;21.94;35.65;98199.97;5150320;27;19920;-57
2022/05/13 14:09:45;;;;;;;;;;;;;;;21.96;35.90;98208.66;5151749;27;20476;-58
2022/05/13 14:12:16;;;;;;;;;;;;;;;21.77;35.37;98208.06;5133061;27;19926;-58